createdAt,value
2023-05-10T00:01:08.624Z,9.50
2023-05-10T00:03:36.571Z,9.46
2023-05-10T00:06:04.141Z,9.50
2023-05-10T00:08:31.715Z,9.55
2023-05-10T00:10:59.621Z,9.50
2023-05-10T00:13:27.212Z,9.59
2023-05-10T00:15:54.944Z,9.53
2023-05-10T00:18:22.794Z,9.58
2023-05-10T00:20:50.588Z,9.59
2023-05-10T00:23:18.165Z,9.62
2023-05-10T00:25:45.987Z,9.53
2023-05-10T00:28:13.506Z,9.60
2023-05-10T00:30:41.015Z,9.60
2023-05-10T00:33:08.853Z,9.54
2023-05-10T00:35:37.041Z,9.50
2023-05-10T00:38:04.684Z,9.48
2023-05-10T00:40:32.582Z,9.44
2023-05-10T00:43:01.557Z,9.38
2023-05-10T00:45:29.257Z,9.34
2023-05-10T00:47:58.321Z,9.29
2023-05-10T00:50:25.965Z,9.28
2023-05-10T00:52:53.841Z,9.22
2023-05-10T00:55:22.583Z,9.22
2023-05-10T00:57:50.325Z,9.13
2023-05-10T01:00:19.375Z,9.16
2023-05-10T01:02:47.841Z,9.10
2023-05-10T01:05:15.427Z,9.08
2023-05-10T01:07:43.093Z,9.10
2023-05-10T01:10:11.987Z,9.05
2023-05-10T01:12:42.367Z,9.09
2023-05-10T01:15:12.239Z,9.04
2023-05-10T01:17:42.307Z,9.11
2023-05-10T01:20:11.370Z,9.13
2023-05-10T01:23:08.110Z,9.16
2023-05-10T01:26:08.904Z,9.13
2023-05-10T01:28:51.292Z,9.09
2023-05-10T01:31:37.721Z,9.14
2023-05-10T01:34:17.481Z,9.14
2023-05-10T01:37:21.318Z,9.06
2023-05-10T01:39:59.345Z,8.99
2023-05-10T01:42:34.799Z,8.98
2023-05-10T01:45:40.715Z,9.04
2023-05-10T01:48:11.603Z,8.91
2023-05-10T01:50:44.357Z,8.86
2023-05-10T01:53:18.809Z,8.80
2023-05-10T01:55:49.725Z,8.86
2023-05-10T01:58:31.490Z,8.87
2023-05-10T02:01:02.553Z,8.85
2023-05-10T02:03:33.402Z,8.76
2023-05-10T02:06:01.021Z,8.81
2023-05-10T02:08:29.337Z,8.73
2023-05-10T02:10:59.674Z,8.77
2023-05-10T02:13:30.909Z,8.78
2023-05-10T02:16:00.284Z,8.77
2023-05-10T02:18:28.684Z,8.65
2023-05-10T02:20:57.612Z,8.66
2023-05-10T02:23:27.351Z,8.67
2023-05-10T02:25:58.041Z,8.61
2023-05-10T02:28:27.139Z,8.66
2023-05-10T02:30:56.335Z,8.73
2023-05-10T02:33:25.133Z,8.71
2023-05-10T02:35:53.598Z,8.67
2023-05-10T02:38:23.781Z,8.61
2023-05-10T02:40:52.379Z,8.51
2023-05-10T02:43:23.613Z,8.47
2023-05-10T02:45:51.714Z,8.43
2023-05-10T02:48:19.284Z,8.43
2023-05-10T02:50:49.649Z,8.48
2023-05-10T02:53:22.501Z,8.46
2023-05-10T02:55:53.556Z,8.47
2023-05-10T02:58:21.875Z,8.48
2023-05-10T03:00:49.449Z,8.42
2023-05-10T03:03:17.017Z,8.45
2023-05-10T03:05:44.814Z,8.50
2023-05-10T03:08:12.704Z,8.49
2023-05-10T03:10:57.238Z,8.46
2023-05-10T03:13:58.214Z,8.44
2023-05-10T03:16:36.836Z,8.38
2023-05-10T03:19:21.718Z,8.40
2023-05-10T03:21:53.651Z,8.40
2023-05-10T03:24:24.274Z,8.33
2023-05-10T03:26:56.655Z,8.26
2023-05-10T03:29:27.319Z,8.27
2023-05-10T03:31:54.920Z,8.27
2023-05-10T03:34:26.067Z,8.34
2023-05-10T03:36:53.981Z,8.37
2023-05-10T03:39:22.431Z,8.36
2023-05-10T03:41:50.521Z,8.43
2023-05-10T03:44:18.753Z,8.38
2023-05-10T03:46:46.618Z,8.38
2023-05-10T03:49:14.422Z,8.43
2023-05-10T03:51:42.332Z,8.45
2023-05-10T03:54:09.919Z,8.48
2023-05-10T03:56:37.546Z,8.37
2023-05-10T03:59:08.460Z,8.30
2023-05-10T04:01:36.189Z,8.27
2023-05-10T04:04:04.231Z,8.28
2023-05-10T04:06:33.031Z,8.26
2023-05-10T04:09:02.704Z,8.27
2023-05-10T04:11:30.504Z,8.36
2023-05-10T04:13:58.023Z,8.36
2023-05-10T04:16:25.593Z,8.37
2023-05-10T04:18:53.546Z,8.31
2023-05-10T04:21:21.676Z,8.39
2023-05-10T04:23:49.151Z,8.33
2023-05-10T04:26:17.257Z,8.36
2023-05-10T04:28:44.835Z,8.45
2023-05-10T04:31:12.654Z,8.41
2023-05-10T04:33:40.527Z,8.47
2023-05-10T04:36:08.301Z,8.48
2023-05-10T04:38:35.809Z,8.45
2023-05-10T04:41:08.897Z,8.55
2023-05-10T04:43:37.311Z,8.56
2023-05-10T04:46:06.512Z,8.65
2023-05-10T04:48:34.601Z,8.68
2023-05-10T04:51:02.254Z,8.68
2023-05-10T04:53:30.014Z,8.74
2023-05-10T04:55:57.495Z,8.77
2023-05-10T04:58:24.990Z,8.90
2023-05-10T05:00:52.807Z,8.96
2023-05-10T05:03:20.509Z,9.03
2023-05-10T05:05:48.116Z,9.06
2023-05-10T05:08:15.934Z,9.08
2023-05-10T05:10:43.838Z,9.17
2023-05-10T05:13:11.366Z,9.26
2023-05-10T05:15:39.181Z,9.34
2023-05-10T05:18:06.707Z,9.34
2023-05-10T05:20:35.527Z,9.45
2023-05-10T05:23:03.436Z,9.50
2023-05-10T05:25:30.978Z,9.60
2023-05-10T05:27:58.549Z,9.71
2023-05-10T05:30:26.362Z,9.81
2023-05-10T05:32:54.077Z,9.93
2023-05-10T05:35:21.796Z,10.00
2023-05-10T05:37:49.562Z,10.09
2023-05-10T05:40:17.180Z,10.16
2023-05-10T05:42:44.702Z,10.15
2023-05-10T05:45:14.381Z,10.24
2023-05-10T05:47:42.407Z,10.36
2023-05-10T05:50:10.641Z,10.46
2023-05-10T05:52:38.429Z,10.50
2023-05-10T05:55:06.408Z,10.58
2023-05-10T05:57:34.700Z,10.69
2023-05-10T06:00:03.855Z,10.79
2023-05-10T06:02:40.145Z,10.93
2023-05-10T06:05:08.806Z,11.18
2023-05-10T06:07:36.288Z,11.27
2023-05-10T06:10:04.160Z,11.45
2023-05-10T06:12:32.013Z,11.58
2023-05-10T06:14:59.553Z,11.76
2023-05-10T06:17:27.605Z,11.91
2023-05-10T06:19:56.182Z,12.13
2023-05-10T06:22:23.879Z,12.27
2023-05-10T06:24:51.632Z,12.31
2023-05-10T06:27:19.467Z,12.63
2023-05-10T06:29:47.034Z,13.03
2023-05-10T06:32:14.516Z,13.22
2023-05-10T06:34:44.256Z,13.42
2023-05-10T06:37:11.752Z,13.57
2023-05-10T06:39:39.462Z,13.77
2023-05-10T06:42:07.266Z,14.09
2023-05-10T06:44:34.785Z,14.20
2023-05-10T06:47:02.262Z,14.32
2023-05-10T06:49:30.155Z,14.63
2023-05-10T06:51:57.716Z,14.31
2023-05-10T06:54:25.398Z,14.67
2023-05-10T06:56:53.536Z,14.93
2023-05-10T06:59:22.570Z,15.04
2023-05-10T07:01:50.223Z,15.14
2023-05-10T07:04:18.781Z,15.10
2023-05-10T07:06:47.415Z,15.10
2023-05-10T07:09:14.877Z,15.07
2023-05-10T07:11:42.752Z,15.03
2023-05-10T07:14:10.621Z,15.48
2023-05-10T07:16:38.141Z,15.14
2023-05-10T07:19:06.466Z,15.14
2023-05-10T07:21:34.076Z,15.42
2023-05-10T07:24:02.198Z,15.65
2023-05-10T07:26:30.646Z,15.37
2023-05-10T07:28:58.210Z,14.96
2023-05-10T07:31:25.798Z,15.58
2023-05-10T07:33:53.641Z,15.18
2023-05-10T07:36:21.319Z,15.19
2023-05-10T07:38:50.525Z,15.37
2023-05-10T07:41:18.339Z,15.55
2023-05-10T07:43:45.795Z,15.38
2023-05-10T07:46:13.308Z,15.18
2023-05-10T07:48:41.223Z,15.04
2023-05-10T07:51:10.422Z,15.55
2023-05-10T07:53:38.981Z,15.87
2023-05-10T07:56:33.362Z,15.57
2023-05-10T07:59:01.272Z,15.46
2023-05-10T08:01:32.347Z,15.52
2023-05-10T08:04:01.024Z,15.60
2023-05-10T08:06:30.960Z,15.43
2023-05-10T08:08:58.776Z,15.53
2023-05-10T08:11:28.613Z,15.20
2023-05-10T08:13:56.123Z,15.10
2023-05-10T08:16:23.830Z,15.35
2023-05-10T08:18:52.029Z,15.80
2023-05-10T08:21:19.730Z,15.47
2023-05-10T08:23:47.267Z,15.71
2023-05-10T08:26:15.141Z,15.45
2023-05-10T08:28:42.626Z,15.71
2023-05-10T08:31:10.165Z,15.66
2023-05-10T08:33:37.958Z,15.40
2023-05-10T08:36:05.560Z,15.52
2023-05-10T08:38:33.121Z,15.71
2023-05-10T08:41:03.293Z,16.18
2023-05-10T08:43:31.406Z,16.80
2023-05-10T08:46:05.314Z,16.40
2023-05-10T08:48:35.695Z,16.31
2023-05-10T08:51:04.803Z,16.55
2023-05-10T08:53:36.431Z,16.57
2023-05-10T08:56:04.919Z,16.52
2023-05-10T08:58:32.868Z,16.33
2023-05-10T09:01:02.006Z,16.81
2023-05-10T09:03:30.683Z,16.57
2023-05-10T09:05:58.298Z,16.34
2023-05-10T09:08:26.906Z,16.27
2023-05-10T09:10:55.912Z,16.38
2023-05-10T09:13:24.767Z,16.34
2023-05-10T09:15:53.139Z,16.42
2023-05-10T09:18:21.119Z,16.49
2023-05-10T09:20:49.556Z,16.69
2023-05-10T09:23:17.074Z,17.17
2023-05-10T09:25:44.989Z,17.36
2023-05-10T09:28:12.835Z,17.47
2023-05-10T09:30:40.671Z,17.75
2023-05-10T09:33:08.962Z,17.69
2023-05-10T09:35:37.189Z,18.07
2023-05-10T09:38:06.543Z,18.06
2023-05-10T09:40:34.472Z,17.77
2023-05-10T09:43:04.661Z,17.57
2023-05-10T09:45:36.122Z,17.25
2023-05-10T09:48:07.098Z,17.67
2023-05-10T09:50:35.315Z,17.21
2023-05-10T09:53:04.393Z,17.04
2023-05-10T09:55:45.733Z,17.65
2023-05-10T09:58:15.155Z,18.13
2023-05-10T10:00:45.166Z,18.05
2023-05-10T10:03:21.134Z,17.67
2023-05-10T10:05:50.055Z,18.20
2023-05-10T10:08:19.442Z,18.35
2023-05-10T10:10:48.076Z,17.98
2023-05-10T10:13:16.537Z,17.85
2023-05-10T10:15:45.626Z,17.70
2023-05-10T10:18:16.690Z,17.61
2023-05-10T10:20:44.754Z,17.68
2023-05-10T10:23:12.718Z,17.53
2023-05-10T10:25:40.945Z,17.39
2023-05-10T10:28:36.681Z,17.55
2023-05-10T10:31:22.693Z,17.83
2023-05-10T10:34:02.035Z,18.25
2023-05-10T10:36:29.888Z,18.47
2023-05-10T10:39:02.370Z,18.19
2023-05-10T10:41:38.348Z,18.00
2023-05-10T10:44:27.309Z,18.44
2023-05-10T10:47:09.263Z,18.37
2023-05-10T10:49:40.144Z,18.45
2023-05-10T10:52:34.519Z,18.16
2023-05-10T10:55:02.475Z,18.80
2023-05-10T10:57:33.396Z,18.76
2023-05-10T11:00:33.999Z,19.01
2023-05-10T11:03:19.596Z,19.63
2023-05-10T11:05:48.862Z,19.82
2023-05-10T11:08:17.398Z,19.61
2023-05-10T11:11:09.980Z,19.40
2023-05-10T11:13:51.658Z,19.74
2023-05-10T11:16:20.900Z,19.74
2023-05-10T11:19:10.528Z,19.33
2023-05-10T11:22:14.901Z,19.06
2023-05-10T11:24:57.895Z,18.77
2023-05-10T11:27:25.838Z,18.24
2023-05-10T11:29:53.740Z,18.05
2023-05-10T11:32:21.819Z,18.24
2023-05-10T11:34:49.621Z,18.47
2023-05-10T11:37:19.307Z,18.62
2023-05-10T11:39:50.336Z,18.58
2023-05-10T11:42:18.311Z,18.48
2023-05-10T11:44:48.020Z,18.28
2023-05-10T11:47:15.673Z,17.99
2023-05-10T11:49:47.773Z,17.93
2023-05-10T11:52:15.433Z,18.27
2023-05-10T11:54:51.783Z,18.49
2023-05-10T11:57:21.293Z,18.39
2023-05-10T11:59:51.180Z,18.27
2023-05-10T12:02:18.910Z,18.20
2023-05-10T12:04:46.769Z,18.23
2023-05-10T12:07:14.532Z,18.77
2023-05-10T12:09:46.021Z,18.86
2023-05-10T12:12:22.882Z,18.45
2023-05-10T12:14:51.834Z,18.82
2023-05-10T12:17:19.661Z,18.80
2023-05-10T12:19:48.208Z,18.48
2023-05-10T12:22:15.934Z,18.13
2023-05-10T12:24:46.373Z,17.86
2023-05-10T12:27:13.985Z,18.43
2023-05-10T12:29:45.433Z,18.89
2023-05-10T12:32:13.370Z,19.24
2023-05-10T12:34:41.140Z,19.70
2023-05-10T12:37:08.636Z,19.75
2023-05-10T12:39:44.003Z,20.10
2023-05-10T12:42:12.112Z,19.76
2023-05-10T12:44:40.872Z,19.85
2023-05-10T12:47:08.502Z,19.67
2023-05-10T12:49:36.435Z,19.76
2023-05-10T12:52:04.400Z,20.04
2023-05-10T12:54:31.947Z,20.20
2023-05-10T12:56:59.385Z,19.96
2023-05-10T12:59:27.100Z,19.73
2023-05-10T13:01:54.565Z,19.42
2023-05-10T13:04:22.041Z,19.43
2023-05-10T13:06:49.888Z,19.58
2023-05-10T13:09:17.336Z,19.47
2023-05-10T13:11:45.088Z,19.53
2023-05-10T13:14:12.858Z,19.85
2023-05-10T13:16:40.354Z,20.17
2023-05-10T13:19:07.951Z,20.17
2023-05-10T13:21:35.787Z,20.45
2023-05-10T13:24:03.391Z,20.62
2023-05-10T13:26:30.933Z,20.69
2023-05-10T13:28:58.796Z,20.71
2023-05-10T13:31:26.544Z,20.88
2023-05-10T13:33:54.207Z,20.83
2023-05-10T13:36:22.243Z,20.63
2023-05-10T13:38:50.035Z,20.28
2023-05-10T13:41:17.697Z,20.03
2023-05-10T13:43:45.479Z,19.95
2023-05-10T13:46:13.388Z,19.86
2023-05-10T13:48:40.918Z,19.67
2023-05-10T13:51:08.983Z,19.69
2023-05-10T13:53:36.528Z,19.95
2023-05-10T13:56:04.145Z,19.74
2023-05-10T13:58:31.941Z,20.23
2023-05-10T14:00:59.414Z,20.26
2023-05-10T14:03:27.270Z,20.09
2023-05-10T14:05:54.841Z,20.02
2023-05-10T14:08:22.691Z,19.85
2023-05-10T14:10:51.747Z,19.41
2023-05-10T14:13:19.228Z,19.21
2023-05-10T14:15:47.062Z,19.03
2023-05-10T14:18:15.402Z,19.10
2023-05-10T14:20:43.003Z,19.11
2023-05-10T14:23:11.946Z,19.19
2023-05-10T14:25:42.886Z,19.48
2023-05-10T14:28:10.701Z,19.49
2023-05-10T14:30:38.211Z,19.60
2023-05-10T14:33:06.051Z,19.48
2023-05-10T14:35:33.926Z,19.13
2023-05-10T14:38:01.530Z,19.00
2023-05-10T14:40:29.761Z,19.10
2023-05-10T14:42:57.451Z,19.05
2023-05-10T14:45:25.079Z,18.97
2023-05-10T14:47:52.973Z,18.79
2023-05-10T14:50:35.299Z,18.69
2023-05-10T14:53:04.837Z,18.95
2023-05-10T14:55:32.510Z,19.17
2023-05-10T14:57:59.963Z,19.30
2023-05-10T15:00:30.086Z,19.42
2023-05-10T15:02:58.590Z,19.57
2023-05-10T15:05:26.718Z,19.56
2023-05-10T15:07:55.095Z,19.62
2023-05-10T15:10:22.688Z,19.63
2023-05-10T15:12:51.138Z,19.52
2023-05-10T15:15:19.068Z,19.40
2023-05-10T15:17:46.995Z,19.21
2023-05-10T15:20:15.120Z,19.15
2023-05-10T15:22:42.938Z,18.98
2023-05-10T15:25:10.892Z,18.99
2023-05-10T15:27:38.486Z,18.97
2023-05-10T15:30:07.342Z,19.06
2023-05-10T15:32:34.847Z,19.15
2023-05-10T15:35:02.816Z,19.26
2023-05-10T15:37:30.592Z,19.30
2023-05-10T15:40:04.428Z,19.27
2023-05-10T15:42:32.850Z,19.35
2023-05-10T15:45:00.411Z,19.37
2023-05-10T15:47:30.904Z,19.30
2023-05-10T15:49:59.027Z,19.30
2023-05-10T15:52:26.600Z,19.32
2023-05-10T15:54:54.242Z,19.24
2023-05-10T15:57:22.062Z,18.92
2023-05-10T15:59:49.636Z,18.81
2023-05-10T16:02:19.360Z,18.77
2023-05-10T16:04:47.447Z,18.69
2023-05-10T16:07:14.963Z,18.57
2023-05-10T16:09:42.662Z,18.47
2023-05-10T16:12:10.718Z,18.40
2023-05-10T16:14:38.252Z,18.35
2023-05-10T16:17:05.933Z,18.40
2023-05-10T16:19:33.964Z,18.50
2023-05-10T16:22:01.736Z,18.28
2023-05-10T16:24:29.514Z,18.20
2023-05-10T16:26:57.403Z,18.24
2023-05-10T16:29:26.291Z,18.25
2023-05-10T16:31:54.000Z,18.23
2023-05-10T16:34:25.416Z,18.19
2023-05-10T16:36:53.085Z,18.13
2023-05-10T16:39:21.474Z,18.13
2023-05-10T16:41:49.315Z,18.08
2023-05-10T16:44:18.916Z,18.05
2023-05-10T16:46:48.008Z,18.04
2023-05-10T16:49:16.483Z,18.03
2023-05-10T16:51:44.051Z,18.01
2023-05-10T16:54:11.698Z,17.94
2023-05-10T16:56:39.557Z,17.87
2023-05-10T16:59:07.061Z,17.77
2023-05-10T17:01:34.675Z,17.71
2023-05-10T17:04:03.330Z,17.66
2023-05-10T17:06:34.089Z,17.54
2023-05-10T17:09:02.039Z,17.45
2023-05-10T17:11:30.101Z,17.42
2023-05-10T17:13:59.261Z,17.34
2023-05-10T17:16:27.406Z,17.30
2023-05-10T17:18:54.948Z,17.23
2023-05-10T17:21:22.532Z,17.16
2023-05-10T17:23:50.390Z,17.05
2023-05-10T17:26:17.919Z,17.02
2023-05-10T17:28:45.549Z,16.97
2023-05-10T17:31:13.453Z,16.89
2023-05-10T17:33:41.033Z,16.82
2023-05-10T17:36:08.659Z,16.80
2023-05-10T17:38:36.974Z,16.74
2023-05-10T17:41:04.472Z,16.68
2023-05-10T17:43:31.960Z,16.58
2023-05-10T17:45:59.883Z,16.56
2023-05-10T17:48:27.743Z,16.49
2023-05-10T17:50:55.306Z,16.44
2023-05-10T17:53:23.363Z,16.34
2023-05-10T17:55:51.783Z,16.27
2023-05-10T17:58:19.265Z,16.17
2023-05-10T18:00:47.112Z,16.13
2023-05-10T18:03:15.108Z,16.08
2023-05-10T18:05:42.732Z,16.00
2023-05-10T18:08:10.426Z,15.93
2023-05-10T18:10:40.631Z,15.86
2023-05-10T18:13:09.488Z,15.84
2023-05-10T18:15:37.583Z,15.80
2023-05-10T18:18:05.684Z,15.76
2023-05-10T18:20:33.553Z,15.63
2023-05-10T18:23:04.233Z,15.58
2023-05-10T18:25:32.066Z,15.54
2023-05-10T18:27:59.563Z,15.47
2023-05-10T18:30:27.048Z,15.43
2023-05-10T18:32:55.663Z,15.42
2023-05-10T18:35:23.291Z,15.39
2023-05-10T18:37:50.972Z,15.32
2023-05-10T18:40:19.653Z,15.29
2023-05-10T18:42:47.408Z,15.27
2023-05-10T18:45:15.216Z,15.20
2023-05-10T18:47:43.304Z,15.15
2023-05-10T18:50:11.399Z,15.16
2023-05-10T18:52:38.987Z,15.14
2023-05-10T18:55:07.492Z,15.10
2023-05-10T18:57:41.217Z,15.09
2023-05-10T19:00:10.853Z,15.01
2023-05-10T19:02:42.111Z,14.99
2023-05-10T19:05:10.470Z,14.97
2023-05-10T19:07:38.298Z,14.87
2023-05-10T19:10:06.542Z,14.84
2023-05-10T19:12:34.627Z,14.87
2023-05-10T19:15:02.171Z,14.79
2023-05-10T19:17:30.280Z,14.78
2023-05-10T19:19:59.298Z,14.78
2023-05-10T19:22:45.002Z,14.73
2023-05-10T19:25:17.094Z,14.73
2023-05-10T19:27:45.342Z,14.65
2023-05-10T19:30:13.349Z,14.63
2023-05-10T19:32:44.210Z,14.60
2023-05-10T19:35:13.721Z,14.57
2023-05-10T19:37:46.017Z,14.55
2023-05-10T19:40:18.629Z,14.51
2023-05-10T19:42:46.725Z,14.48
2023-05-10T19:45:15.916Z,14.46
2023-05-10T19:47:43.956Z,14.47
2023-05-10T19:50:12.609Z,14.45
2023-05-10T19:52:40.346Z,14.46
2023-05-10T19:55:08.866Z,14.44
2023-05-10T19:57:37.194Z,14.39
2023-05-10T20:00:05.347Z,14.40
2023-05-10T20:02:39.095Z,14.34
2023-05-10T20:05:07.502Z,14.29
2023-05-10T20:07:34.990Z,14.29
2023-05-10T20:10:03.091Z,14.25
2023-05-10T20:12:30.969Z,14.25
2023-05-10T20:14:58.532Z,14.29
2023-05-10T20:17:26.028Z,14.27
2023-05-10T20:19:53.803Z,14.26
2023-05-10T20:22:21.466Z,14.27
2023-05-10T20:24:48.993Z,14.22
2023-05-10T20:27:17.174Z,14.17
2023-05-10T20:29:44.715Z,14.19
2023-05-10T20:32:12.225Z,14.12
2023-05-10T20:34:40.150Z,14.11
2023-05-10T20:37:08.177Z,14.11
2023-05-10T20:39:35.962Z,14.10
2023-05-10T20:42:03.895Z,14.07
2023-05-10T20:44:31.401Z,14.07
2023-05-10T20:46:58.882Z,14.04
2023-05-10T20:49:28.093Z,14.00
2023-05-10T20:51:55.980Z,13.99
2023-05-10T20:54:24.433Z,13.97
2023-05-10T20:56:52.280Z,13.98
2023-05-10T20:59:19.808Z,13.94
2023-05-10T21:01:47.518Z,13.92
2023-05-10T21:04:15.344Z,13.90
2023-05-10T21:06:46.163Z,13.90
2023-05-10T21:09:13.701Z,13.89
2023-05-10T21:11:41.634Z,13.87
2023-05-10T21:14:09.785Z,13.83
2023-05-10T21:16:37.376Z,13.83
2023-05-10T21:19:07.270Z,13.84
2023-05-10T21:21:35.225Z,13.85
2023-05-10T21:24:02.706Z,13.85
2023-05-10T21:26:31.393Z,13.84
2023-05-10T21:28:59.387Z,13.80
2023-05-10T21:31:27.009Z,13.76
2023-05-10T21:33:54.909Z,13.75
2023-05-10T21:36:22.862Z,13.73
2023-05-10T21:38:50.739Z,13.71
2023-05-10T21:41:18.673Z,13.69
2023-05-10T21:43:46.136Z,13.63
2023-05-10T21:46:14.407Z,13.64
2023-05-10T21:48:42.303Z,13.60
2023-05-10T21:51:09.914Z,13.56
2023-05-10T21:53:39.080Z,13.62
2023-05-10T21:56:07.410Z,13.54
2023-05-10T21:58:34.922Z,13.54
2023-05-10T22:01:03.405Z,13.52
2023-05-10T22:03:31.422Z,13.50
2023-05-10T22:05:58.974Z,13.49
2023-05-10T22:08:26.795Z,13.45
2023-05-10T22:10:54.593Z,13.36
2023-05-10T22:13:22.130Z,13.36
2023-05-10T22:15:49.711Z,13.32
2023-05-10T22:18:17.653Z,13.37
2023-05-10T22:20:46.533Z,13.34
2023-05-10T22:23:14.386Z,13.32
2023-05-10T22:25:42.251Z,13.33
2023-05-10T22:28:10.418Z,13.23
2023-05-10T22:30:38.009Z,13.21
2023-05-10T22:33:06.619Z,13.13
2023-05-10T22:35:34.327Z,13.11
2023-05-10T22:38:01.883Z,13.06
2023-05-10T22:40:29.705Z,13.02
2023-05-10T22:42:57.215Z,12.96
2023-05-10T22:45:24.673Z,12.92
2023-05-10T22:47:52.484Z,12.86
2023-05-10T22:50:21.129Z,12.80
2023-05-10T22:52:48.752Z,12.83
2023-05-10T22:55:17.077Z,12.78
2023-05-10T22:57:44.657Z,12.73
2023-05-10T23:00:12.649Z,12.69
2023-05-10T23:02:40.587Z,12.66
2023-05-10T23:05:08.775Z,12.63
2023-05-10T23:07:36.455Z,12.58
2023-05-10T23:10:04.530Z,12.55
2023-05-10T23:12:32.088Z,12.58
2023-05-10T23:14:59.734Z,12.55
2023-05-10T23:17:27.637Z,12.52
2023-05-10T23:19:55.278Z,12.50
2023-05-10T23:22:22.823Z,12.49
2023-05-10T23:24:50.646Z,12.45
2023-05-10T23:27:18.218Z,12.45
2023-05-10T23:29:45.738Z,12.43
2023-05-10T23:32:13.550Z,12.38
2023-05-10T23:34:41.082Z,12.39
2023-05-10T23:37:08.598Z,12.30
2023-05-10T23:39:36.449Z,12.29
2023-05-10T23:42:04.239Z,12.32
2023-05-10T23:44:31.807Z,12.32
2023-05-10T23:46:59.578Z,12.31
2023-05-10T23:49:27.241Z,12.24
2023-05-10T23:51:54.858Z,12.26
2023-05-10T23:54:22.733Z,12.21
2023-05-10T23:56:51.631Z,12.12
2023-05-10T23:59:19.158Z,12.17
